createdAt,value
2022-10-10T00:01:28.886Z,6.36
2022-10-10T00:03:57.113Z,6.34
2022-10-10T00:06:28.144Z,6.31
2022-10-10T00:08:59.658Z,6.29
2022-10-10T00:11:28.606Z,6.27
2022-10-10T00:13:56.240Z,6.25
2022-10-10T00:16:24.511Z,6.24
2022-10-10T00:18:52.314Z,6.22
2022-10-10T00:21:20.060Z,6.20
2022-10-10T00:23:47.725Z,6.18
2022-10-10T00:26:18.901Z,6.16
2022-10-10T00:28:48.072Z,6.13
2022-10-10T00:31:16.029Z,6.12
2022-10-10T00:33:43.656Z,6.11
2022-10-10T00:36:11.636Z,6.09
2022-10-10T00:38:39.179Z,6.07
2022-10-10T00:41:06.818Z,6.07
2022-10-10T00:43:35.219Z,6.06
2022-10-10T00:46:04.221Z,6.06
2022-10-10T00:48:34.247Z,6.04
2022-10-10T00:51:06.266Z,6.04
2022-10-10T00:53:37.949Z,6.01
2022-10-10T00:56:06.916Z,6.02
2022-10-10T00:58:35.802Z,5.97
2022-10-10T01:01:04.840Z,5.95
2022-10-10T01:03:32.394Z,5.94
2022-10-10T01:06:00.449Z,5.93
2022-10-10T01:08:28.705Z,5.90
2022-10-10T01:11:10.764Z,5.88
2022-10-10T01:13:48.995Z,5.86
2022-10-10T01:16:27.781Z,5.83
2022-10-10T01:19:04.058Z,5.82
2022-10-10T01:21:38.857Z,5.80
2022-10-10T01:24:31.845Z,5.77
2022-10-10T01:27:30.994Z,5.73
2022-10-10T01:30:03.681Z,5.70
2022-10-10T01:32:34.076Z,5.66
2022-10-10T01:35:15.810Z,5.62
2022-10-10T01:37:49.885Z,5.58
2022-10-10T01:40:25.610Z,5.55
2022-10-10T01:42:56.565Z,5.51
2022-10-10T01:45:25.970Z,5.48
2022-10-10T01:47:56.849Z,5.46
2022-10-10T01:50:27.429Z,5.42
2022-10-10T01:53:06.224Z,5.38
2022-10-10T01:55:48.938Z,5.34
2022-10-10T01:58:37.702Z,5.31
2022-10-10T02:01:17.755Z,5.29
2022-10-10T02:03:48.671Z,5.26
2022-10-10T02:06:22.609Z,5.22
2022-10-10T02:08:52.767Z,5.18
2022-10-10T02:11:20.532Z,5.15
2022-10-10T02:13:51.031Z,5.13
2022-10-10T02:16:25.145Z,5.11
2022-10-10T02:18:54.749Z,5.08
2022-10-10T02:21:24.068Z,5.06
2022-10-10T02:23:55.001Z,5.03
2022-10-10T02:26:26.115Z,5.02
2022-10-10T02:28:58.622Z,4.98
2022-10-10T02:31:33.414Z,4.96
2022-10-10T02:34:07.466Z,4.95
2022-10-10T02:36:36.021Z,4.95
2022-10-10T02:39:04.477Z,4.93
2022-10-10T02:41:34.221Z,4.92
2022-10-10T02:44:02.163Z,4.91
2022-10-10T02:46:31.129Z,4.87
2022-10-10T02:48:59.449Z,4.83
2022-10-10T02:51:30.292Z,4.80
2022-10-10T02:53:58.094Z,4.76
2022-10-10T02:56:25.576Z,4.73
2022-10-10T02:58:53.222Z,4.71
2022-10-10T03:01:20.884Z,4.69
2022-10-10T03:03:49.916Z,4.66
2022-10-10T03:06:17.659Z,4.64
2022-10-10T03:08:45.451Z,4.62
2022-10-10T03:11:12.997Z,4.59
2022-10-10T03:13:40.633Z,4.57
2022-10-10T03:16:08.202Z,4.54
2022-10-10T03:18:35.779Z,4.52
2022-10-10T03:21:05.158Z,4.50
2022-10-10T03:23:34.378Z,4.50
2022-10-10T03:26:02.288Z,4.47
2022-10-10T03:28:29.900Z,4.46
2022-10-10T03:30:57.655Z,4.43
2022-10-10T03:33:25.262Z,4.43
2022-10-10T03:35:52.877Z,4.41
2022-10-10T03:38:21.775Z,4.39
2022-10-10T03:40:49.571Z,4.36
2022-10-10T03:43:17.350Z,4.34
2022-10-10T03:45:47.473Z,4.32
2022-10-10T03:48:15.539Z,4.27
2022-10-10T03:50:43.187Z,4.25
2022-10-10T03:53:10.915Z,4.23
2022-10-10T03:55:41.729Z,4.22
2022-10-10T03:58:09.346Z,4.20
2022-10-10T04:00:37.099Z,4.19
2022-10-10T04:03:06.397Z,4.17
2022-10-10T04:05:35.309Z,4.14
2022-10-10T04:08:03.063Z,4.13
2022-10-10T04:10:30.627Z,4.11
2022-10-10T04:12:59.578Z,4.09
2022-10-10T04:15:27.803Z,4.09
2022-10-10T04:17:55.471Z,4.07
2022-10-10T04:20:23.047Z,4.05
2022-10-10T04:22:50.941Z,4.04
2022-10-10T04:25:18.907Z,4.04
2022-10-10T04:27:46.446Z,4.02
2022-10-10T04:30:15.726Z,4.00
2022-10-10T04:32:43.285Z,3.97
2022-10-10T04:35:11.773Z,3.96
2022-10-10T04:37:39.339Z,3.95
2022-10-10T04:40:07.699Z,3.92
2022-10-10T04:42:35.300Z,3.92
2022-10-10T04:45:02.819Z,3.90
2022-10-10T04:47:31.713Z,3.88
2022-10-10T04:49:59.316Z,3.87
2022-10-10T04:52:26.934Z,3.86
2022-10-10T04:54:54.504Z,3.86
2022-10-10T04:57:22.079Z,3.85
2022-10-10T04:59:49.618Z,3.85
2022-10-10T05:02:17.209Z,3.83
2022-10-10T05:04:46.267Z,3.81
2022-10-10T05:07:13.850Z,3.82
2022-10-10T05:09:41.498Z,3.79
2022-10-10T05:12:09.045Z,3.78
2022-10-10T05:14:36.686Z,3.79
2022-10-10T05:17:04.570Z,3.78
2022-10-10T05:19:32.122Z,3.76
2022-10-10T05:22:01.372Z,3.76
2022-10-10T05:24:29.158Z,3.74
2022-10-10T05:26:56.715Z,3.74
2022-10-10T05:29:24.348Z,3.73
2022-10-10T05:31:52.000Z,3.75
2022-10-10T05:34:19.489Z,3.75
2022-10-10T05:36:47.131Z,3.76
2022-10-10T05:39:16.020Z,3.73
2022-10-10T05:41:43.534Z,3.74
2022-10-10T05:44:11.193Z,3.73
2022-10-10T05:46:38.785Z,3.72
2022-10-10T05:49:06.365Z,3.71
2022-10-10T05:51:33.919Z,3.71
2022-10-10T05:54:01.513Z,3.70
2022-10-10T05:56:30.481Z,3.72
2022-10-10T05:58:58.009Z,3.72
2022-10-10T06:01:25.550Z,3.71
2022-10-10T06:03:55.880Z,3.73
2022-10-10T06:06:23.940Z,3.74
2022-10-10T06:08:51.919Z,3.77
2022-10-10T06:11:20.621Z,3.78
2022-10-10T06:13:53.969Z,3.81
2022-10-10T06:16:21.895Z,3.82
2022-10-10T06:18:49.636Z,3.84
2022-10-10T06:21:18.031Z,3.85
2022-10-10T06:23:45.994Z,3.86
2022-10-10T06:26:13.673Z,3.86
2022-10-10T06:28:41.234Z,3.87
2022-10-10T06:31:15.686Z,3.89
2022-10-10T06:33:45.372Z,3.91
2022-10-10T06:36:17.375Z,3.92
2022-10-10T06:38:45.703Z,3.93
2022-10-10T06:41:13.886Z,3.98
2022-10-10T06:43:42.254Z,4.00
2022-10-10T06:46:11.702Z,4.04
2022-10-10T06:48:39.299Z,4.08
2022-10-10T06:51:08.851Z,4.14
2022-10-10T06:53:36.713Z,4.20
2022-10-10T06:56:05.017Z,4.26
2022-10-10T06:58:34.247Z,4.33
2022-10-10T07:01:05.248Z,4.40
2022-10-10T07:03:34.226Z,4.47
2022-10-10T07:06:02.975Z,4.57
2022-10-10T07:08:31.295Z,4.63
2022-10-10T07:10:58.907Z,4.72
2022-10-10T07:13:26.709Z,4.83
2022-10-10T07:15:54.340Z,4.95
2022-10-10T07:18:22.345Z,5.11
2022-10-10T07:20:51.290Z,5.26
2022-10-10T07:23:18.858Z,5.41
2022-10-10T07:25:46.401Z,5.56
2022-10-10T07:28:14.025Z,5.70
2022-10-10T07:30:43.583Z,5.86
2022-10-10T07:33:11.201Z,6.01
2022-10-10T07:35:38.899Z,6.14
2022-10-10T07:38:08.255Z,6.28
2022-10-10T07:40:35.994Z,6.41
2022-10-10T07:43:03.555Z,6.53
2022-10-10T07:45:31.103Z,6.68
2022-10-10T07:47:58.687Z,6.84
2022-10-10T07:50:26.225Z,6.99
2022-10-10T07:52:53.792Z,7.13
2022-10-10T07:55:22.651Z,7.26
2022-10-10T07:57:53.451Z,7.44
2022-10-10T08:00:21.330Z,7.59
2022-10-10T08:02:48.987Z,7.78
2022-10-10T08:05:16.580Z,7.94
2022-10-10T08:07:44.131Z,8.14
2022-10-10T08:10:12.188Z,8.37
2022-10-10T08:12:41.298Z,8.65
2022-10-10T08:17:43.118Z,9.27
2022-10-10T08:20:11.250Z,9.57
2022-10-10T08:22:38.993Z,9.74
2022-10-10T08:25:07.678Z,9.94
2022-10-10T08:27:35.249Z,10.08
2022-10-10T08:30:05.282Z,10.21
2022-10-10T08:32:32.898Z,10.33
2022-10-10T08:35:00.510Z,10.43
2022-10-10T08:37:31.843Z,10.60
2022-10-10T08:40:02.926Z,10.81
2022-10-10T08:42:34.601Z,11.00
2022-10-10T08:45:10.487Z,11.16
2022-10-10T08:47:44.738Z,11.32
2022-10-10T08:50:17.560Z,11.49
2022-10-10T08:52:52.073Z,11.66
2022-10-10T08:55:22.819Z,11.87
2022-10-10T08:57:52.889Z,12.03
2022-10-10T09:00:24.827Z,12.22
2022-10-10T09:02:54.526Z,12.39
2022-10-10T09:05:32.770Z,12.49
2022-10-10T09:08:12.669Z,12.65
2022-10-10T09:10:47.915Z,12.80
2022-10-10T09:13:25.709Z,12.91
2022-10-10T09:15:57.882Z,13.00
2022-10-10T09:18:42.262Z,13.12
2022-10-10T09:21:16.345Z,13.21
2022-10-10T09:23:51.687Z,13.32
2022-10-10T09:26:24.076Z,13.50
2022-10-10T09:28:56.834Z,13.62
2022-10-10T09:31:34.046Z,13.80
2022-10-10T09:34:06.417Z,13.94
2022-10-10T09:36:37.116Z,14.11
2022-10-10T09:39:07.801Z,14.22
2022-10-10T09:41:40.276Z,14.33
2022-10-10T09:44:12.578Z,14.51
2022-10-10T09:46:41.982Z,14.67
2022-10-10T09:49:15.349Z,14.73
2022-10-10T09:51:43.521Z,14.82
2022-10-10T09:54:12.544Z,14.87
2022-10-10T09:56:45.436Z,14.94
2022-10-10T09:59:37.744Z,15.08
2022-10-10T10:02:15.088Z,15.21
2022-10-10T10:04:42.885Z,15.27
2022-10-10T10:07:21.650Z,15.31
2022-10-10T10:09:51.602Z,15.40
2022-10-10T10:12:23.510Z,15.46
2022-10-10T10:14:54.173Z,15.53
2022-10-10T10:17:24.711Z,15.57
2022-10-10T10:19:52.577Z,15.63
2022-10-10T10:22:31.088Z,15.71
2022-10-10T10:24:59.019Z,15.79
2022-10-10T10:27:29.122Z,15.83
2022-10-10T10:29:59.518Z,15.87
2022-10-10T10:32:46.146Z,15.93
2022-10-10T10:35:24.110Z,15.93
2022-10-10T10:38:17.528Z,15.97
2022-10-10T10:40:55.378Z,16.02
2022-10-10T10:43:54.934Z,16.08
2022-10-10T10:46:31.282Z,16.13
2022-10-10T10:49:03.880Z,16.18
2022-10-10T10:51:43.872Z,16.20
2022-10-10T10:54:27.510Z,16.27
2022-10-10T10:57:06.601Z,16.31
2022-10-10T11:00:20.341Z,16.33
2022-10-10T11:02:56.076Z,16.42
2022-10-10T11:05:41.979Z,16.45
2022-10-10T11:08:42.963Z,16.49
2022-10-10T11:11:42.316Z,16.55
2022-10-10T11:14:21.141Z,16.57
2022-10-10T11:16:53.688Z,16.59
2022-10-10T11:19:29.019Z,16.63
2022-10-10T11:22:04.152Z,16.77
2022-10-10T11:24:42.121Z,16.82
2022-10-10T11:27:18.816Z,16.85
2022-10-10T11:29:56.223Z,16.92
2022-10-10T11:32:29.132Z,16.96
2022-10-10T11:35:08.494Z,16.99
2022-10-10T11:37:46.187Z,16.95
2022-10-10T11:40:28.003Z,16.95
2022-10-10T11:43:00.676Z,16.98
2022-10-10T11:45:32.002Z,17.00
2022-10-10T11:48:11.519Z,17.09
2022-10-10T11:50:42.965Z,17.11
2022-10-10T11:53:20.379Z,17.14
2022-10-10T11:55:55.537Z,17.17
2022-10-10T11:58:28.951Z,17.23
2022-10-10T12:01:00.443Z,17.29
2022-10-10T12:03:28.092Z,17.34
2022-10-10T12:06:00.996Z,17.33
2022-10-10T12:08:37.699Z,17.38
2022-10-10T12:11:16.344Z,17.40
2022-10-10T12:13:47.111Z,17.46
2022-10-10T12:16:18.173Z,17.47
2022-10-10T12:18:48.043Z,17.53
2022-10-10T12:21:17.799Z,17.55
2022-10-10T12:23:50.209Z,17.56
2022-10-10T12:26:21.138Z,17.59
2022-10-10T12:29:03.990Z,17.64
2022-10-10T12:31:37.525Z,17.65
2022-10-10T12:34:16.962Z,17.69
2022-10-10T12:37:12.906Z,17.71
2022-10-10T12:40:03.680Z,17.69
2022-10-10T12:42:33.826Z,17.69
2022-10-10T12:45:01.927Z,17.67
2022-10-10T12:48:03.422Z,17.67
2022-10-10T12:50:26.726Z,17.70
2022-10-10T12:52:57.513Z,17.70
2022-10-10T12:55:29.966Z,17.68
2022-10-10T12:58:01.906Z,17.72
2022-10-10T13:00:37.069Z,17.75
2022-10-10T13:03:11.071Z,17.74
2022-10-10T13:05:41.872Z,17.75
2022-10-10T13:08:14.586Z,17.76
2022-10-10T13:10:44.135Z,17.73
2022-10-10T13:13:19.406Z,17.74
2022-10-10T13:15:53.542Z,17.76
2022-10-10T13:18:34.409Z,17.75
2022-10-10T13:21:03.203Z,17.77
2022-10-10T13:23:31.398Z,17.76
2022-10-10T13:26:00.762Z,17.76
2022-10-10T13:28:29.283Z,17.78
2022-10-10T13:30:57.217Z,17.77
2022-10-10T13:33:32.279Z,17.76
2022-10-10T13:36:07.740Z,17.78
2022-10-10T13:38:36.171Z,17.77
2022-10-10T13:41:05.954Z,17.72
2022-10-10T13:43:34.311Z,17.72
2022-10-10T13:46:04.333Z,17.76
2022-10-10T13:48:41.437Z,17.80
2022-10-10T13:51:11.201Z,17.79
2022-10-10T13:53:48.225Z,17.80
2022-10-10T13:56:21.517Z,17.81
2022-10-10T13:58:51.762Z,17.83
2022-10-10T14:01:35.623Z,17.84
2022-10-10T14:04:08.708Z,17.84
2022-10-10T14:06:36.765Z,17.88
2022-10-10T14:09:10.217Z,17.91
2022-10-10T14:11:41.692Z,17.92
2022-10-10T14:14:15.929Z,17.92
2022-10-10T14:16:44.101Z,17.89
2022-10-10T14:19:18.838Z,17.92
2022-10-10T14:21:46.660Z,17.91
2022-10-10T14:24:16.128Z,17.89
2022-10-10T14:26:45.238Z,17.89
2022-10-10T14:29:15.538Z,17.90
2022-10-10T14:31:44.005Z,17.91
2022-10-10T14:34:12.829Z,17.91
2022-10-10T14:36:45.438Z,17.89
2022-10-10T14:39:14.761Z,17.89
2022-10-10T14:41:42.507Z,17.89
2022-10-10T14:44:11.815Z,17.88
2022-10-10T14:46:41.132Z,17.88
2022-10-10T14:49:17.243Z,17.87
2022-10-10T14:51:44.879Z,17.88
2022-10-10T14:54:14.065Z,17.81
2022-10-10T14:57:07.314Z,17.77
2022-10-10T14:59:47.600Z,17.73
2022-10-10T15:02:21.600Z,17.72
2022-10-10T15:04:49.247Z,17.73
2022-10-10T15:07:17.463Z,17.63
2022-10-10T15:12:34.221Z,17.58
2022-10-10T15:15:03.116Z,17.53
2022-10-10T15:17:33.592Z,17.50
2022-10-10T15:20:01.276Z,17.49
2022-10-10T15:22:30.322Z,17.44
2022-10-10T15:24:58.146Z,17.44
2022-10-10T15:27:27.858Z,17.38
2022-10-10T15:29:55.827Z,17.35
2022-10-10T15:32:24.961Z,17.29
2022-10-10T15:34:53.466Z,17.27
2022-10-10T15:37:21.100Z,17.24
2022-10-10T15:39:48.666Z,17.24
2022-10-10T15:42:22.325Z,17.17
2022-10-10T15:44:50.819Z,17.13
2022-10-10T15:47:21.312Z,17.07
2022-10-10T15:49:51.057Z,17.02
2022-10-10T15:52:19.386Z,17.04
2022-10-10T15:54:49.409Z,16.95
2022-10-10T15:57:18.939Z,16.89
2022-10-10T15:59:47.249Z,16.79
2022-10-10T16:02:15.080Z,16.71
2022-10-10T16:04:43.108Z,16.62
2022-10-10T16:07:26.844Z,16.54
2022-10-10T16:09:56.170Z,16.42
2022-10-10T16:12:23.728Z,16.37
2022-10-10T16:14:51.484Z,16.25
2022-10-10T16:17:23.109Z,16.20
2022-10-10T16:19:51.173Z,16.11
2022-10-10T16:22:21.210Z,16.02
2022-10-10T16:25:21.318Z,15.89
2022-10-10T16:27:37.330Z,15.80
2022-10-10T16:30:05.866Z,15.69
2022-10-10T16:32:36.918Z,15.61
2022-10-10T16:35:09.574Z,15.55
2022-10-10T16:37:38.926Z,15.50
2022-10-10T16:40:08.355Z,15.46
2022-10-10T16:42:36.100Z,15.40
2022-10-10T16:45:04.100Z,15.35
2022-10-10T16:47:31.655Z,15.32
2022-10-10T16:49:59.242Z,15.28
2022-10-10T16:52:26.942Z,15.24
2022-10-10T16:54:55.911Z,15.22
2022-10-10T16:57:23.565Z,15.19
2022-10-10T16:59:51.111Z,15.14
2022-10-10T17:02:18.879Z,15.08
2022-10-10T17:04:46.401Z,15.04
2022-10-10T17:07:14.231Z,14.99
2022-10-10T17:09:41.815Z,14.96
2022-10-10T17:12:10.786Z,14.99
2022-10-10T17:14:38.365Z,14.87
2022-10-10T17:17:12.233Z,14.68
2022-10-10T17:19:40.469Z,14.56
2022-10-10T17:22:08.236Z,14.35
2022-10-10T17:24:36.501Z,14.26
2022-10-10T17:27:04.213Z,14.13
2022-10-10T17:29:33.640Z,14.03
2022-10-10T17:32:05.995Z,13.92
2022-10-10T17:34:34.799Z,13.82
2022-10-10T17:37:02.797Z,13.74
2022-10-10T17:39:30.508Z,13.68
2022-10-10T17:41:58.096Z,13.64
2022-10-10T17:44:25.809Z,13.55
2022-10-10T17:46:54.756Z,13.54
2022-10-10T17:49:22.337Z,13.45
2022-10-10T17:51:49.960Z,13.38
2022-10-10T17:54:18.257Z,13.30
2022-10-10T17:56:46.069Z,13.25
2022-10-10T17:59:14.073Z,13.24
2022-10-10T18:01:41.758Z,13.18
2022-10-10T18:04:11.943Z,13.15
2022-10-10T18:06:39.752Z,13.15
2022-10-10T18:09:07.581Z,13.13
2022-10-10T18:11:35.356Z,13.14
2022-10-10T18:14:02.937Z,13.08
2022-10-10T18:16:34.058Z,13.06
2022-10-10T18:19:02.468Z,13.02
2022-10-10T18:21:31.410Z,12.99
2022-10-10T18:23:59.164Z,12.99
2022-10-10T18:26:29.329Z,12.95
2022-10-10T18:28:57.444Z,12.89
2022-10-10T18:31:27.467Z,12.78
2022-10-10T18:33:55.686Z,12.80
2022-10-10T18:36:26.433Z,12.71
2022-10-10T18:38:55.619Z,12.67
2022-10-10T18:41:25.107Z,12.61
2022-10-10T18:43:52.953Z,12.59
2022-10-10T18:46:22.096Z,12.56
2022-10-10T18:48:53.762Z,12.51
2022-10-10T18:51:24.130Z,12.46
2022-10-10T18:53:53.333Z,12.40
2022-10-10T18:56:24.507Z,12.36
2022-10-10T18:58:54.566Z,12.31
2022-10-10T19:01:25.161Z,12.27
2022-10-10T19:03:54.121Z,12.24
2022-10-10T19:06:22.637Z,12.18
2022-10-10T19:08:52.158Z,12.16
2022-10-10T19:11:22.915Z,12.12
2022-10-10T19:13:51.023Z,12.09
2022-10-10T19:16:19.048Z,12.05
2022-10-10T19:18:47.064Z,12.00
2022-10-10T19:21:16.210Z,11.95
2022-10-10T19:23:44.994Z,11.91
2022-10-10T19:26:14.937Z,11.85
2022-10-10T19:28:44.747Z,11.80
2022-10-10T19:31:14.759Z,11.74
2022-10-10T19:33:44.013Z,11.69
2022-10-10T19:36:13.073Z,11.62
2022-10-10T19:38:42.380Z,11.57
2022-10-10T19:41:12.680Z,11.52
2022-10-10T19:43:40.657Z,11.45
2022-10-10T19:46:11.791Z,11.40
2022-10-10T19:48:39.432Z,11.35
2022-10-10T19:51:09.676Z,11.28
2022-10-10T19:53:38.133Z,11.24
2022-10-10T19:56:08.009Z,11.18
2022-10-10T19:58:36.913Z,11.11
2022-10-10T20:01:09.431Z,11.06
2022-10-10T20:03:37.179Z,11.00
2022-10-10T20:06:06.166Z,10.94
2022-10-10T20:08:34.305Z,10.89
2022-10-10T20:11:02.173Z,10.85
2022-10-10T20:13:29.794Z,10.79
2022-10-10T20:16:01.633Z,10.74
2022-10-10T20:18:31.274Z,10.68
2022-10-10T20:20:58.906Z,10.62
2022-10-10T20:23:27.542Z,10.57
2022-10-10T20:25:55.174Z,10.52
2022-10-10T20:28:23.156Z,10.46
2022-10-10T20:30:52.937Z,10.40
2022-10-10T20:33:21.910Z,10.35
2022-10-10T20:36:02.262Z,10.29
2022-10-10T20:38:30.007Z,10.23
2022-10-10T20:40:57.774Z,10.18
2022-10-10T20:43:25.344Z,10.12
2022-10-10T20:45:52.947Z,10.07
2022-10-10T20:48:20.505Z,10.02
2022-10-10T20:50:48.075Z,9.98
2022-10-10T20:53:16.965Z,9.92
2022-10-10T20:55:44.633Z,9.86
2022-10-10T20:58:12.217Z,9.80
2022-10-10T21:00:43.018Z,9.73
2022-10-10T21:03:10.627Z,9.66
2022-10-10T21:05:38.488Z,9.60
2022-10-10T21:08:06.540Z,9.52
2022-10-10T21:10:39.056Z,9.46
2022-10-10T21:13:07.643Z,9.40
2022-10-10T21:15:35.233Z,9.34
2022-10-10T21:18:02.838Z,9.28
2022-10-10T21:20:30.371Z,9.24
2022-10-10T21:22:57.934Z,9.16
2022-10-10T21:25:25.566Z,9.09
2022-10-10T21:27:54.452Z,9.03
2022-10-10T21:30:24.430Z,8.97
2022-10-10T21:32:51.966Z,8.92
2022-10-10T21:35:19.567Z,8.87
2022-10-10T21:37:47.320Z,8.82
2022-10-10T21:40:15.111Z,8.78
2022-10-10T21:42:42.802Z,8.74
2022-10-10T21:45:12.257Z,8.71
2022-10-10T21:47:42.473Z,8.68
2022-10-10T21:50:11.090Z,8.67
2022-10-10T21:52:38.619Z,8.64
2022-10-10T21:55:07.019Z,8.64
2022-10-10T21:57:34.773Z,8.62
2022-10-10T22:00:02.357Z,8.60
2022-10-10T22:02:34.220Z,8.59
2022-10-10T22:05:02.467Z,8.56
2022-10-10T22:07:30.858Z,8.56
2022-10-10T22:09:58.759Z,8.54
2022-10-10T22:12:26.324Z,8.53
2022-10-10T22:14:53.845Z,8.52
2022-10-10T22:17:21.492Z,8.51
2022-10-10T22:19:50.441Z,8.50
2022-10-10T22:22:18.037Z,8.50
2022-10-10T22:24:45.891Z,8.49
2022-10-10T22:27:13.467Z,8.48
2022-10-10T22:29:40.997Z,8.47
2022-10-10T22:32:08.518Z,8.46
2022-10-10T22:34:36.142Z,8.44
2022-10-10T22:37:05.206Z,8.42
2022-10-10T22:39:33.010Z,8.41
2022-10-10T22:42:00.559Z,8.40
2022-10-10T22:44:28.271Z,8.39
2022-10-10T22:46:55.828Z,8.38
2022-10-10T22:49:23.462Z,8.35
2022-10-10T22:51:51.518Z,8.30
2022-10-10T22:54:20.526Z,8.27
2022-10-10T22:56:48.079Z,8.24
2022-10-10T22:59:15.711Z,8.20
2022-10-10T23:01:43.274Z,8.16
2022-10-10T23:04:13.271Z,8.14
2022-10-10T23:06:41.279Z,8.10
2022-10-10T23:09:09.414Z,8.04
2022-10-10T23:11:38.268Z,8.01
2022-10-10T23:14:06.565Z,7.97
2022-10-10T23:16:35.711Z,7.93
2022-10-10T23:19:06.206Z,7.89
2022-10-10T23:21:33.760Z,7.85
2022-10-10T23:24:01.317Z,7.82
2022-10-10T23:26:29.988Z,7.79
2022-10-10T23:28:58.927Z,7.77
2022-10-10T23:31:26.588Z,7.74
2022-10-10T23:33:54.175Z,7.69
2022-10-10T23:36:21.963Z,7.66
2022-10-10T23:38:49.762Z,7.61
2022-10-10T23:41:17.434Z,7.60
2022-10-10T23:43:45.284Z,7.55
2022-10-10T23:46:15.405Z,7.52
2022-10-10T23:48:43.351Z,7.49
2022-10-10T23:51:11.214Z,7.44
2022-10-10T23:53:38.872Z,7.41
2022-10-10T23:56:06.984Z,7.38
2022-10-10T23:58:35.095Z,7.35
